createdAt,value
2016-11-22T00:00:06.149Z,0
2016-11-22T00:01:06.458Z,0
2016-11-22T00:02:06.436Z,0
2016-11-22T00:03:06.123Z,0
2016-11-22T00:04:06.138Z,0
2016-11-22T00:05:06.092Z,0
2016-11-22T00:06:06.095Z,0
2016-11-22T00:07:06.065Z,0
2016-11-22T00:08:06.082Z,0
2016-11-22T00:09:06.033Z,0
2016-11-22T00:10:06.018Z,0
2016-11-22T00:11:06.319Z,0
2016-11-22T00:12:06.003Z,0
2016-11-22T00:13:05.986Z,0
2016-11-22T00:14:05.975Z,0
2016-11-22T00:15:05.956Z,0
2016-11-22T00:16:05.945Z,0
2016-11-22T00:17:06.558Z,0
2016-11-22T00:18:05.918Z,0
2016-11-22T00:19:05.899Z,0
2016-11-22T00:20:05.891Z,0
2016-11-22T00:21:05.881Z,0
2016-11-22T00:22:05.868Z,0
2016-11-22T00:23:05.861Z,0
2016-11-22T00:24:05.835Z,0
2016-11-22T00:25:05.823Z,0
2016-11-22T00:26:05.818Z,0
2016-11-22T00:27:05.794Z,0
2016-11-22T00:28:05.781Z,0
2016-11-22T00:29:06.097Z,0
2016-11-22T00:30:05.804Z,0
2016-11-22T00:31:05.745Z,0
2016-11-22T00:32:05.728Z,0
2016-11-22T00:33:05.713Z,0
2016-11-22T00:34:05.704Z,0
2016-11-22T00:35:05.693Z,0
2016-11-22T00:36:05.689Z,0
2016-11-22T00:37:05.967Z,0
2016-11-22T00:38:05.648Z,0
2016-11-22T00:39:05.941Z,0
2016-11-22T00:40:05.626Z,0
2016-11-22T00:41:05.610Z,0
2016-11-22T00:42:05.586Z,0
2016-11-22T00:43:05.577Z,0
2016-11-22T00:44:06.193Z,0
2016-11-22T00:45:05.555Z,0
2016-11-22T00:46:05.533Z,0
2016-11-22T00:47:05.518Z,0
2016-11-22T00:48:05.508Z,0
2016-11-22T00:49:05.495Z,0
2016-11-22T00:50:05.477Z,0
2016-11-22T00:51:05.468Z,0
2016-11-22T00:52:05.454Z,0
2016-11-22T00:53:05.437Z,0
2016-11-22T00:54:05.433Z,0
2016-11-22T00:55:05.402Z,0
2016-11-22T00:56:05.713Z,0
2016-11-22T00:57:05.385Z,0
2016-11-22T00:58:05.372Z,0
2016-11-22T00:59:05.669Z,0
2016-11-22T01:00:05.659Z,0
2016-11-22T01:01:05.329Z,0
2016-11-22T01:02:05.678Z,0
2016-11-22T01:03:05.300Z,0
2016-11-22T01:04:05.287Z,0
2016-11-22T01:05:05.596Z,0
2016-11-22T01:06:05.575Z,0
2016-11-22T01:07:05.251Z,0
2016-11-22T01:08:05.236Z,0
2016-11-22T01:09:05.231Z,0
2016-11-22T01:10:05.217Z,0
2016-11-22T01:11:05.521Z,0
2016-11-22T01:12:05.509Z,0
2016-11-22T01:13:05.484Z,0
2016-11-22T01:14:05.154Z,0
2016-11-22T01:15:05.141Z,0
2016-11-22T01:16:05.445Z,0
2016-11-22T01:17:05.437Z,0
2016-11-22T01:18:05.112Z,0
2016-11-22T01:19:05.090Z,0
2016-11-22T01:20:05.077Z,0
2016-11-22T01:21:05.061Z,0
2016-11-22T01:22:05.050Z,0
2016-11-22T01:23:05.035Z,0
2016-11-22T01:24:05.019Z,0
2016-11-22T01:25:05.031Z,0
2016-11-22T01:26:04.993Z,0
2016-11-22T01:27:04.981Z,0
2016-11-22T01:28:05.280Z,0
2016-11-22T01:29:04.979Z,0
2016-11-22T01:30:04.942Z,0
2016-11-22T01:31:04.927Z,0
2016-11-22T01:32:04.911Z,0
2016-11-22T01:33:04.899Z,0
2016-11-22T01:34:04.889Z,0
2016-11-22T01:35:04.869Z,0
2016-11-22T01:36:04.859Z,0
2016-11-22T01:37:05.170Z,0
2016-11-22T01:38:05.478Z,0
2016-11-22T01:39:05.135Z,0
2016-11-22T01:40:04.806Z,0
2016-11-22T01:41:04.796Z,0
2016-11-22T01:42:05.099Z,0
2016-11-22T01:43:04.766Z,0
2016-11-22T01:44:04.950Z,0
2016-11-22T01:45:05.371Z,0
2016-11-22T01:46:04.728Z,0
2016-11-22T01:47:04.710Z,0
2016-11-22T01:48:04.701Z,0
2016-11-22T01:49:04.689Z,0
2016-11-22T01:50:04.671Z,0
2016-11-22T01:51:05.002Z,0
2016-11-22T01:52:04.645Z,0
2016-11-22T01:53:04.636Z,0
2016-11-22T01:54:04.645Z,0
2016-11-22T01:55:04.603Z,0
2016-11-22T01:56:04.906Z,0
2016-11-22T01:57:04.581Z,0
2016-11-22T01:58:04.881Z,0
2016-11-22T01:59:05.205Z,0
2016-11-22T02:00:04.535Z,0
2016-11-22T02:01:04.524Z,0
2016-11-22T02:02:04.517Z,0
2016-11-22T02:03:04.530Z,0
2016-11-22T02:04:04.486Z,0
2016-11-22T02:05:05.099Z,0
2016-11-22T02:06:04.458Z,0
2016-11-22T02:07:04.447Z,0
2016-11-22T02:08:04.749Z,0
2016-11-22T02:09:04.419Z,0
2016-11-22T02:10:04.407Z,0
2016-11-22T02:11:04.395Z,0
2016-11-22T02:12:04.384Z,0
2016-11-22T02:13:04.361Z,0
2016-11-22T02:14:04.353Z,0
2016-11-22T02:15:04.333Z,0
2016-11-22T02:16:04.644Z,0
2016-11-22T02:17:04.302Z,0
2016-11-22T02:18:04.297Z,0
2016-11-22T02:19:04.285Z,0
2016-11-22T02:20:04.279Z,0
2016-11-22T02:21:04.569Z,0
2016-11-22T02:22:04.240Z,0
2016-11-22T02:23:04.227Z,0
2016-11-22T02:24:04.214Z,0
2016-11-22T02:25:04.203Z,0
2016-11-22T02:26:04.185Z,0
2016-11-22T02:27:04.168Z,0
2016-11-22T02:28:04.243Z,0
2016-11-22T02:29:04.461Z,0
2016-11-22T02:30:04.446Z,0
2016-11-22T02:31:04.118Z,0
2016-11-22T02:32:04.101Z,0
2016-11-22T02:33:04.089Z,0
2016-11-22T02:34:04.092Z,0
2016-11-22T02:35:04.062Z,0
2016-11-22T02:36:04.395Z,0
2016-11-22T02:37:04.047Z,0
2016-11-22T02:38:04.332Z,0
2016-11-22T02:39:04.324Z,0
2016-11-22T02:40:04.308Z,0
2016-11-22T02:41:04.292Z,0
2016-11-22T02:42:03.959Z,0
2016-11-22T02:43:03.955Z,0
2016-11-22T02:44:03.936Z,0
2016-11-22T02:45:03.938Z,0
2016-11-22T02:46:03.901Z,0
2016-11-22T02:47:04.215Z,0
2016-11-22T02:48:03.884Z,0
2016-11-22T02:49:03.869Z,0
2016-11-22T02:50:03.852Z,0
2016-11-22T02:51:03.854Z,0
2016-11-22T02:52:03.824Z,0
2016-11-22T02:53:03.857Z,0
2016-11-22T02:54:03.827Z,0
2016-11-22T02:55:04.110Z,0
2016-11-22T02:56:03.772Z,0
2016-11-22T02:57:03.760Z,0
2016-11-22T02:58:03.736Z,0
2016-11-22T02:59:03.729Z,0
2016-11-22T03:00:04.031Z,0
2016-11-22T03:01:04.017Z,0
2016-11-22T03:02:03.999Z,0
2016-11-22T03:03:03.674Z,0
2016-11-22T03:04:03.659Z,0
2016-11-22T03:05:03.959Z,0
2016-11-22T03:06:03.629Z,0
2016-11-22T03:07:03.614Z,0
2016-11-22T03:08:03.609Z,0
2016-11-22T03:09:03.599Z,0
2016-11-22T03:10:03.579Z,0
2016-11-22T03:11:03.570Z,0
2016-11-22T03:12:03.863Z,0
2016-11-22T03:13:03.849Z,0
2016-11-22T03:14:03.834Z,0
2016-11-22T03:15:03.503Z,0
2016-11-22T03:16:03.492Z,0
2016-11-22T03:17:03.480Z,0
2016-11-22T03:18:03.465Z,0
2016-11-22T03:19:03.456Z,0
2016-11-22T03:20:03.434Z,0
2016-11-22T03:21:03.424Z,0
2016-11-22T03:22:03.411Z,0
2016-11-22T03:23:03.741Z,0
2016-11-22T03:24:03.376Z,0
2016-11-22T03:25:03.683Z,0
2016-11-22T03:26:03.384Z,0
2016-11-22T03:27:03.363Z,0
2016-11-22T03:28:03.639Z,0
2016-11-22T03:29:03.312Z,0
2016-11-22T03:30:03.299Z,0
2016-11-22T03:31:03.285Z,0
2016-11-22T03:32:03.602Z,0
2016-11-22T03:33:03.571Z,0
2016-11-22T03:34:03.240Z,0
2016-11-22T03:35:03.232Z,0
2016-11-22T03:36:03.212Z,0
2016-11-22T03:37:03.204Z,0
2016-11-22T03:38:03.502Z,0
2016-11-22T03:39:03.172Z,0
2016-11-22T03:40:03.475Z,0
2016-11-22T03:41:03.148Z,0
2016-11-22T03:42:03.134Z,0
2016-11-22T03:43:03.436Z,0
2016-11-22T03:44:03.616Z,0
2016-11-22T03:45:03.087Z,0
2016-11-22T03:46:03.074Z,0
2016-11-22T03:47:03.062Z,0
2016-11-22T03:48:03.047Z,0
2016-11-22T03:49:03.034Z,0
2016-11-22T03:50:03.059Z,0
2016-11-22T03:51:03.007Z,0
2016-11-22T03:52:02.987Z,0
2016-11-22T03:53:03.302Z,0
2016-11-22T03:54:02.974Z,0
2016-11-22T03:55:02.969Z,0
2016-11-22T03:56:02.945Z,0
2016-11-22T03:57:02.928Z,0
2016-11-22T03:58:03.537Z,0
2016-11-22T03:59:02.898Z,0
2016-11-22T04:00:02.878Z,0
2016-11-22T04:01:02.868Z,0
2016-11-22T04:02:02.859Z,0
2016-11-22T04:03:03.152Z,0
2016-11-22T04:04:02.873Z,0
2016-11-22T04:05:02.841Z,0
2016-11-22T04:06:02.799Z,0
2016-11-22T04:07:03.100Z,0
2016-11-22T04:08:02.770Z,0
2016-11-22T04:09:02.764Z,0
2016-11-22T04:10:02.741Z,0
2016-11-22T04:11:02.739Z,0
2016-11-22T04:12:03.040Z,0
2016-11-22T04:13:02.707Z,0
2016-11-22T04:14:03.004Z,0
2016-11-22T04:15:02.988Z,0
2016-11-22T04:16:02.663Z,0
2016-11-22T04:17:02.697Z,0
2016-11-22T04:18:03.264Z,0
2016-11-22T04:19:02.618Z,0
2016-11-22T04:20:02.608Z,0
2016-11-22T04:21:02.598Z,0
2016-11-22T04:22:02.578Z,0
2016-11-22T04:23:02.567Z,0
2016-11-22T04:24:02.553Z,0
2016-11-22T04:25:03.172Z,0
2016-11-22T04:26:02.841Z,0
2016-11-22T04:27:02.510Z,0
2016-11-22T04:28:02.496Z,0
2016-11-22T04:29:02.482Z,0
2016-11-22T04:30:02.469Z,0
2016-11-22T04:31:02.457Z,0
2016-11-22T04:32:02.445Z,0
2016-11-22T04:33:02.430Z,0
2016-11-22T04:34:02.420Z,0
2016-11-22T04:35:02.398Z,0
2016-11-22T04:36:02.382Z,0
2016-11-22T04:37:02.372Z,0
2016-11-22T04:38:02.362Z,0
2016-11-22T04:39:02.407Z,0
2016-11-22T04:40:02.328Z,0
2016-11-22T04:41:02.316Z,0
2016-11-22T04:42:02.306Z,0
2016-11-22T04:43:02.292Z,0
2016-11-22T04:44:02.619Z,0
2016-11-22T04:45:02.277Z,0
2016-11-22T04:46:02.249Z,0
2016-11-22T04:47:02.233Z,0
2016-11-22T04:48:02.224Z,0
2016-11-22T04:49:02.211Z,0
2016-11-22T04:50:02.199Z,0
2016-11-22T04:51:02.183Z,0
2016-11-22T04:52:02.168Z,0
2016-11-22T04:53:02.157Z,0
2016-11-22T04:54:02.147Z,0
2016-11-22T04:55:02.134Z,0
2016-11-22T04:56:02.142Z,0
2016-11-22T04:57:02.105Z,0
2016-11-22T04:58:02.089Z,0
2016-11-22T04:59:02.074Z,0
2016-11-22T05:00:02.065Z,0
2016-11-22T05:01:02.055Z,0
2016-11-22T05:02:02.039Z,0
2016-11-22T05:03:02.021Z,0
2016-11-22T05:04:02.006Z,0
2016-11-22T05:05:01.993Z,0
2016-11-22T05:06:02.298Z,0
2016-11-22T05:07:01.970Z,0
2016-11-22T05:08:01.966Z,0
2016-11-22T05:09:01.946Z,0
2016-11-22T05:10:02.251Z,0
2016-11-22T05:11:01.916Z,0
2016-11-22T05:12:01.901Z,0
2016-11-22T05:13:02.210Z,0
2016-11-22T05:14:02.207Z,0
2016-11-22T05:15:01.874Z,0
2016-11-22T05:16:01.856Z,0
2016-11-22T05:17:02.158Z,0
2016-11-22T05:18:01.824Z,0
2016-11-22T05:19:01.811Z,0
2016-11-22T05:20:01.803Z,0
2016-11-22T05:21:02.100Z,0
2016-11-22T05:22:01.773Z,0
2016-11-22T05:23:01.757Z,0
2016-11-22T05:24:02.056Z,0
2016-11-22T05:25:01.732Z,0
2016-11-22T05:26:01.717Z,0
2016-11-22T05:27:01.713Z,0
2016-11-22T05:28:01.688Z,0
2016-11-22T05:29:01.681Z,0
2016-11-22T05:30:01.973Z,0
2016-11-22T05:31:01.642Z,0
2016-11-22T05:32:01.635Z,0
2016-11-22T05:33:01.624Z,0
2016-11-22T05:34:01.606Z,0
2016-11-22T05:35:01.595Z,0
2016-11-22T05:36:01.589Z,0
2016-11-22T05:37:01.604Z,0
2016-11-22T05:38:01.567Z,0
2016-11-22T05:39:01.563Z,0
2016-11-22T05:40:01.538Z,0
2016-11-22T05:41:01.518Z,0
2016-11-22T05:42:01.559Z,0
2016-11-22T05:43:01.497Z,0
2016-11-22T05:44:01.674Z,0
2016-11-22T05:45:01.462Z,0
2016-11-22T05:46:01.764Z,0
2016-11-22T05:47:01.472Z,0
2016-11-22T05:48:01.442Z,0
2016-11-22T05:49:01.718Z,0
2016-11-22T05:50:01.709Z,0
2016-11-22T05:51:01.700Z,0
2016-11-22T05:52:01.361Z,0
2016-11-22T05:53:01.374Z,0
2016-11-22T05:54:01.338Z,0
2016-11-22T05:55:01.328Z,0
2016-11-22T05:56:01.317Z,0
2016-11-22T05:57:01.307Z,0
2016-11-22T05:58:01.289Z,0
2016-11-22T05:59:01.277Z,0
2016-11-22T06:00:01.258Z,0
2016-11-22T06:01:01.250Z,0
2016-11-22T06:02:01.554Z,0
2016-11-22T06:03:01.226Z,0
2016-11-22T06:04:01.516Z,0
2016-11-22T06:05:01.194Z,0
2016-11-22T06:06:01.497Z,0
2016-11-22T06:07:01.165Z,0
2016-11-22T06:08:01.153Z,0
2016-11-22T06:09:01.485Z,0
2016-11-22T06:10:01.126Z,0
2016-11-22T06:11:01.112Z,0
2016-11-22T06:12:01.109Z,0
2016-11-22T06:13:01.401Z,0
2016-11-22T06:14:01.387Z,0
2016-11-22T06:15:01.062Z,0
2016-11-22T06:16:01.052Z,0
2016-11-22T06:17:01.035Z,0
2016-11-22T06:18:01.042Z,0
2016-11-22T06:19:01.007Z,0
2016-11-22T06:20:01.042Z,0
2016-11-22T06:21:00.986Z,0
2016-11-22T06:22:00.962Z,0
2016-11-22T06:23:00.949Z,0
2016-11-22T06:24:00.945Z,0
2016-11-22T06:25:00.930Z,0
2016-11-22T06:26:00.957Z,0
2016-11-22T06:27:01.267Z,0
2016-11-22T06:28:00.889Z,0
2016-11-22T06:29:01.192Z,0
2016-11-22T06:30:00.881Z,0
2016-11-22T06:31:01.152Z,0
2016-11-22T06:32:01.142Z,0
2016-11-22T06:33:01.128Z,0
2016-11-22T06:34:00.809Z,0
2016-11-22T06:35:00.792Z,0
2016-11-22T06:36:00.780Z,0
2016-11-22T06:37:01.073Z,0
2016-11-22T06:38:00.753Z,0
2016-11-22T06:39:01.054Z,0
2016-11-22T06:40:00.721Z,0
2016-11-22T06:41:01.021Z,0
2016-11-22T06:42:01.006Z,0
2016-11-22T06:43:00.679Z,0
2016-11-22T06:44:01.291Z,0
2016-11-22T06:45:00.653Z,0
2016-11-22T06:46:01.298Z,0
2016-11-22T06:47:00.623Z,0
2016-11-22T06:48:00.607Z,0
2016-11-22T06:49:00.597Z,0
2016-11-22T06:50:00.584Z,0
2016-11-22T06:51:00.575Z,0
2016-11-22T06:52:00.567Z,0
2016-11-22T06:53:00.551Z,0
2016-11-22T06:54:01.164Z,0
2016-11-22T06:55:00.514Z,0
2016-11-22T06:56:00.504Z,0
2016-11-22T06:57:00.491Z,0
2016-11-22T06:58:00.790Z,0
2016-11-22T06:59:00.480Z,0
2016-11-22T07:00:01.088Z,0
2016-11-22T07:01:00.433Z,0
2016-11-22T07:02:00.731Z,0
2016-11-22T07:03:00.402Z,5
2016-11-22T07:04:00.709Z,5
2016-11-22T07:05:00.396Z,5
2016-11-22T07:06:00.365Z,5
2016-11-22T07:07:00.673Z,5
2016-11-22T07:08:00.339Z,5
2016-11-22T07:09:00.639Z,5
2016-11-22T07:10:00.312Z,5
2016-11-22T07:11:00.300Z,5
2016-11-22T07:12:00.299Z,5
2016-11-22T07:13:00.273Z,5
2016-11-22T07:14:00.889Z,5
2016-11-22T07:15:00.583Z,5
2016-11-22T07:16:00.233Z,10
2016-11-22T07:17:00.846Z,10
2016-11-22T07:18:00.231Z,10
2016-11-22T07:19:00.182Z,10
2016-11-22T07:20:00.486Z,10
2016-11-22T07:21:00.155Z,10
2016-11-22T07:22:00.140Z,10
2016-11-22T07:23:00.138Z,10
2016-11-22T07:24:00.109Z,10
2016-11-22T07:25:00.104Z,10
2016-11-22T07:26:00.397Z,15
2016-11-22T07:27:00.073Z,15
2016-11-22T07:28:00.370Z,15
2016-11-22T07:29:00.100Z,15
2016-11-22T07:30:00.034Z,15
2016-11-22T07:31:00.011Z,15
2016-11-22T07:32:00.322Z,15
2016-11-22T07:33:00.309Z,20
2016-11-22T07:33:59.974Z,20
2016-11-22T07:34:59.973Z,20
2016-11-22T07:35:59.951Z,20
2016-11-22T07:37:00.254Z,20
2016-11-22T07:38:00.272Z,20
2016-11-22T07:38:59.911Z,20
2016-11-22T07:39:59.903Z,25
2016-11-22T07:40:59.879Z,25
2016-11-22T07:42:00.192Z,25
2016-11-22T07:42:59.881Z,25
2016-11-22T07:44:00.040Z,25
2016-11-22T07:44:59.875Z,30
2016-11-22T07:45:59.811Z,30
2016-11-22T07:46:59.850Z,30
2016-11-22T07:48:00.104Z,30
2016-11-22T07:48:59.770Z,35
2016-11-22T07:49:59.752Z,35
2016-11-22T07:50:59.740Z,35
2016-11-22T07:51:59.722Z,35
2016-11-22T07:53:00.032Z,35
2016-11-22T07:53:59.696Z,35
2016-11-22T07:54:59.997Z,35
2016-11-22T07:55:59.673Z,40
2016-11-22T07:56:59.665Z,40
2016-11-22T07:57:59.963Z,40
2016-11-22T07:58:59.660Z,40
2016-11-22T07:59:59.618Z,45
2016-11-22T08:00:59.917Z,45
2016-11-22T08:01:59.599Z,45
2016-11-22T08:02:59.592Z,45
2016-11-22T08:03:59.572Z,50
2016-11-22T08:04:59.561Z,50
2016-11-22T08:05:59.545Z,50
2016-11-22T08:06:59.525Z,50
2016-11-22T08:07:59.856Z,50
2016-11-22T08:08:59.501Z,50
2016-11-22T08:09:59.481Z,55
2016-11-22T08:10:59.478Z,55
2016-11-22T08:11:59.455Z,60
2016-11-22T08:12:59.756Z,65
2016-11-22T08:13:59.428Z,70
2016-11-22T08:14:59.414Z,75
2016-11-22T08:15:59.449Z,75
2016-11-22T08:16:59.401Z,75
2016-11-22T08:17:59.602Z,75
2016-11-22T08:18:59.364Z,75
2016-11-22T08:19:59.666Z,80
2016-11-22T08:20:59.649Z,80
2016-11-22T08:21:59.640Z,80
2016-11-22T08:22:59.632Z,85
2016-11-22T08:23:59.305Z,90
2016-11-22T08:24:59.279Z,90
2016-11-22T08:25:59.273Z,90
2016-11-22T08:26:59.262Z,90
2016-11-22T08:27:59.557Z,90
2016-11-22T08:28:59.930Z,95
2016-11-22T08:29:59.219Z,95
2016-11-22T08:30:59.218Z,100
2016-11-22T08:31:59.510Z,100
2016-11-22T08:33:00.121Z,95
2016-11-22T08:33:59.161Z,100
2016-11-22T08:34:59.781Z,95
2016-11-22T08:35:59.472Z,100
2016-11-22T08:36:59.434Z,95
2016-11-22T08:37:59.422Z,100
2016-11-22T08:38:59.097Z,100
2016-11-22T08:39:59.087Z,95
2016-11-22T08:40:59.375Z,95
2016-11-22T08:41:59.370Z,95
2016-11-22T08:42:59.039Z,85
2016-11-22T08:43:59.025Z,75
2016-11-22T08:44:59.328Z,75
2016-11-22T08:45:59.004Z,75
2016-11-22T08:46:59.046Z,70
2016-11-22T08:47:58.977Z,70
2016-11-22T08:48:59.274Z,70
2016-11-22T08:49:59.261Z,70
2016-11-22T08:50:59.320Z,65
2016-11-22T08:51:58.920Z,70
2016-11-22T08:52:58.908Z,70
2016-11-22T08:53:58.894Z,80
2016-11-22T08:54:58.890Z,80
2016-11-22T08:55:58.874Z,85
2016-11-22T08:56:58.859Z,90
2016-11-22T08:57:58.861Z,95
2016-11-22T08:58:58.831Z,95
2016-11-22T08:59:59.141Z,100
2016-11-22T09:00:58.806Z,100
2016-11-22T09:01:58.792Z,95
2016-11-22T09:02:58.793Z,105
2016-11-22T09:03:58.764Z,115
2016-11-22T09:04:58.804Z,120
2016-11-22T09:05:58.734Z,115
2016-11-22T09:06:58.726Z,120
2016-11-22T09:07:59.044Z,120
2016-11-22T09:08:58.696Z,120
2016-11-22T09:09:58.690Z,120
2016-11-22T09:10:58.678Z,115
2016-11-22T09:11:58.671Z,115
2016-11-22T09:12:58.640Z,105
2016-11-22T09:13:58.652Z,105
2016-11-22T09:14:58.621Z,95
2016-11-22T09:15:58.936Z,85
2016-11-22T09:16:58.919Z,85
2016-11-22T09:17:58.900Z,85
2016-11-22T09:18:58.893Z,90
2016-11-22T09:19:58.605Z,95
2016-11-22T09:20:58.561Z,100
2016-11-22T09:21:59.160Z,115
2016-11-22T09:22:58.834Z,135
2016-11-22T09:23:58.509Z,145
2016-11-22T09:24:58.808Z,150
2016-11-22T09:25:58.496Z,160
2016-11-22T09:26:58.843Z,165
2016-11-22T09:27:58.479Z,160
2016-11-22T09:28:58.448Z,160
2016-11-22T09:29:58.458Z,155
2016-11-22T09:30:58.746Z,145
2016-11-22T09:31:58.736Z,145
2016-11-22T09:32:58.404Z,150
2016-11-22T09:33:59.077Z,150
2016-11-22T09:34:58.405Z,150
2016-11-22T09:35:58.759Z,145
2016-11-22T09:36:58.402Z,145
2016-11-22T09:37:58.337Z,150
2016-11-22T09:38:58.322Z,150
2016-11-22T09:39:58.631Z,160
2016-11-22T09:40:58.299Z,165
2016-11-22T09:41:58.291Z,180
2016-11-22T09:42:58.595Z,185
2016-11-22T09:43:58.470Z,185
2016-11-22T09:44:58.889Z,180
2016-11-22T09:45:58.259Z,180
2016-11-22T09:46:58.231Z,170
2016-11-22T09:47:58.232Z,170
2016-11-22T09:48:58.205Z,170
2016-11-22T09:49:58.201Z,175
2016-11-22T09:50:58.530Z,175
2016-11-22T09:51:58.170Z,170
2016-11-22T09:52:58.554Z,165
2016-11-22T09:53:58.500Z,165
2016-11-22T09:54:58.135Z,165
2016-11-22T09:55:58.441Z,170
2016-11-22T09:56:58.750Z,160
2016-11-22T09:57:58.100Z,155
2016-11-22T09:58:58.091Z,155
2016-11-22T09:59:58.386Z,155
2016-11-22T10:00:58.063Z,155
2016-11-22T10:01:58.051Z,155
2016-11-22T10:02:58.040Z,155
2016-11-22T10:03:58.365Z,160
2016-11-22T10:04:58.348Z,165
2016-11-22T10:05:58.004Z,165
2016-11-22T10:06:58.007Z,170
2016-11-22T10:07:57.987Z,165
2016-11-22T10:08:57.966Z,155
2016-11-22T10:09:57.966Z,155
2016-11-22T10:10:57.943Z,150
2016-11-22T10:11:57.933Z,145
2016-11-22T10:12:57.924Z,150
2016-11-22T10:13:57.910Z,150
2016-11-22T10:14:58.239Z,160
2016-11-22T10:15:58.205Z,165
2016-11-22T10:16:58.197Z,170
2016-11-22T10:17:57.864Z,175
2016-11-22T10:18:58.165Z,180
2016-11-22T10:19:57.841Z,180
2016-11-22T10:20:58.148Z,180
2016-11-22T10:21:57.832Z,180
2016-11-22T10:22:57.809Z,185
2016-11-22T10:23:57.803Z,185
2016-11-22T10:24:57.777Z,185
2016-11-22T10:25:57.773Z,190
2016-11-22T10:26:57.761Z,195
2016-11-22T10:27:57.766Z,200
2016-11-22T10:28:58.058Z,205
2016-11-22T10:29:58.045Z,200
2016-11-22T10:30:57.737Z,195
2016-11-22T10:31:57.703Z,185
2016-11-22T10:32:57.689Z,180
2016-11-22T10:33:57.739Z,180
2016-11-22T10:34:57.667Z,190
2016-11-22T10:35:57.659Z,190
2016-11-22T10:36:57.641Z,200
2016-11-22T10:37:57.683Z,205
2016-11-22T10:38:57.619Z,200
2016-11-22T10:39:57.636Z,190
2016-11-22T10:40:57.597Z,180
2016-11-22T10:41:57.586Z,180
2016-11-22T10:42:57.898Z,175
2016-11-22T10:43:57.572Z,175
2016-11-22T10:44:57.553Z,185
2016-11-22T10:45:57.545Z,195
2016-11-22T10:46:57.536Z,215
2016-11-22T10:47:57.530Z,230
2016-11-22T10:48:57.507Z,230
2016-11-22T10:49:57.504Z,215
2016-11-22T10:50:57.489Z,205
2016-11-22T10:51:57.474Z,205
2016-11-22T10:52:57.463Z,210
2016-11-22T10:53:57.452Z,205
2016-11-22T10:54:57.451Z,190
2016-11-22T10:55:57.430Z,165
2016-11-22T10:56:57.421Z,145
2016-11-22T10:57:57.431Z,135
2016-11-22T10:58:57.394Z,135
2016-11-22T10:59:57.707Z,130
2016-11-22T11:00:57.387Z,130
2016-11-22T11:01:57.373Z,130
2016-11-22T11:02:57.685Z,130
2016-11-22T11:03:57.338Z,125
2016-11-22T11:04:57.682Z,125
2016-11-22T11:05:57.332Z,125
2016-11-22T11:06:57.346Z,130
2016-11-22T11:07:57.301Z,130
2016-11-22T11:08:57.296Z,130
2016-11-22T11:09:57.603Z,130
2016-11-22T11:10:57.582Z,130
2016-11-22T11:11:57.889Z,130
2016-11-22T11:12:57.247Z,130
2016-11-22T11:13:57.556Z,130
2016-11-22T11:14:57.224Z,130
2016-11-22T11:15:57.565Z,130
2016-11-22T11:16:57.202Z,135
2016-11-22T11:17:57.186Z,140
2016-11-22T11:18:57.175Z,150
2016-11-22T11:19:57.166Z,175
2016-11-22T11:20:57.155Z,195
2016-11-22T11:21:57.157Z,200
2016-11-22T11:22:57.463Z,205
2016-11-22T11:23:57.119Z,220
2016-11-22T11:24:57.111Z,225
2016-11-22T11:25:57.452Z,230
2016-11-22T11:26:57.087Z,235
2016-11-22T11:27:57.071Z,235
2016-11-22T11:28:57.067Z,220
2016-11-22T11:29:57.051Z,220
2016-11-22T11:30:57.037Z,215
2016-11-22T11:31:57.036Z,225
2016-11-22T11:32:57.011Z,225
2016-11-22T11:33:57.008Z,240
2016-11-22T11:34:57.316Z,245
2016-11-22T11:35:56.983Z,245
2016-11-22T11:36:57.007Z,260
2016-11-22T11:37:56.956Z,265
2016-11-22T11:38:57.267Z,270
2016-11-22T11:39:56.944Z,270
2016-11-22T11:40:57.267Z,275
2016-11-22T11:41:56.977Z,275
2016-11-22T11:42:57.229Z,270
2016-11-22T11:43:57.097Z,270
2016-11-22T11:44:57.203Z,260
2016-11-22T11:45:56.876Z,250
2016-11-22T11:46:56.866Z,240
2016-11-22T11:47:56.857Z,240
2016-11-22T11:48:56.838Z,235
2016-11-22T11:49:57.153Z,230
2016-11-22T11:50:56.860Z,245
2016-11-22T11:51:56.817Z,260
2016-11-22T11:52:56.812Z,255
2016-11-22T11:53:56.814Z,255
2016-11-22T11:54:56.787Z,260
2016-11-22T11:55:56.778Z,265
2016-11-22T11:56:56.771Z,255
2016-11-22T11:57:56.756Z,255
2016-11-22T11:58:56.744Z,280
2016-11-22T11:59:56.732Z,260
2016-11-22T12:00:56.727Z,265
2016-11-22T12:01:56.709Z,265
2016-11-22T12:02:56.754Z,275
2016-11-22T12:03:56.699Z,275
2016-11-22T12:04:56.996Z,245
2016-11-22T12:05:56.991Z,245
2016-11-22T12:06:56.667Z,245
2016-11-22T12:07:56.655Z,260
2016-11-22T12:08:56.649Z,255
2016-11-22T12:09:56.640Z,260
2016-11-22T12:10:56.646Z,275
2016-11-22T12:11:56.934Z,275
2016-11-22T12:12:56.611Z,255
2016-11-22T12:13:56.600Z,275
2016-11-22T12:14:56.590Z,285
2016-11-22T12:15:56.894Z,280
2016-11-22T12:16:56.572Z,300
2016-11-22T12:17:56.562Z,290
2016-11-22T12:18:56.552Z,275
2016-11-22T12:19:56.547Z,270
2016-11-22T12:20:56.541Z,255
2016-11-22T12:21:56.540Z,295
2016-11-22T12:22:56.837Z,280
2016-11-22T12:23:56.503Z,265
2016-11-22T12:24:56.499Z,275
2016-11-22T12:25:56.492Z,250
2016-11-22T12:26:56.529Z,245
2016-11-22T12:27:56.476Z,230
2016-11-22T12:28:56.471Z,215
2016-11-22T12:29:56.455Z,210
2016-11-22T12:30:56.448Z,205
2016-11-22T12:31:56.496Z,200
2016-11-22T12:32:56.438Z,205
2016-11-22T12:33:56.733Z,210
2016-11-22T12:34:56.416Z,215
2016-11-22T12:35:56.413Z,215
2016-11-22T12:36:56.407Z,205
2016-11-22T12:37:57.021Z,210
2016-11-22T12:38:56.411Z,215
2016-11-22T12:39:56.378Z,220
2016-11-22T12:40:56.353Z,225
2016-11-22T12:41:56.668Z,215
2016-11-22T12:42:56.337Z,220
2016-11-22T12:43:56.648Z,225
2016-11-22T12:44:56.338Z,220
2016-11-22T12:45:56.313Z,210
2016-11-22T12:46:56.617Z,205
2016-11-22T12:47:56.292Z,200
2016-11-22T12:48:56.294Z,200
2016-11-22T12:49:56.595Z,205
2016-11-22T12:50:56.260Z,200
2016-11-22T12:51:56.257Z,195
2016-11-22T12:52:56.555Z,200
2016-11-22T12:53:56.230Z,200
2016-11-22T12:54:56.231Z,195
2016-11-22T12:55:56.530Z,185
2016-11-22T12:56:56.204Z,185
2016-11-22T12:57:56.513Z,185
2016-11-22T12:58:56.189Z,185
2016-11-22T12:59:56.177Z,200
2016-11-22T13:00:56.169Z,225
2016-11-22T13:01:56.152Z,245
2016-11-22T13:02:56.148Z,265
2016-11-22T13:03:56.454Z,265
2016-11-22T13:04:56.122Z,275
2016-11-22T13:05:56.751Z,270
2016-11-22T13:06:56.103Z,260
2016-11-22T13:07:57.041Z,265
2016-11-22T13:08:56.093Z,270
2016-11-22T13:09:56.075Z,270
2016-11-22T13:10:56.067Z,250
2016-11-22T13:11:56.065Z,230
2016-11-22T13:12:56.053Z,225
2016-11-22T13:13:56.363Z,210
2016-11-22T13:14:56.373Z,210
2016-11-22T13:15:56.023Z,220
2016-11-22T13:16:56.045Z,225
2016-11-22T13:17:56.007Z,225
2016-11-22T13:18:55.998Z,215
2016-11-22T13:19:56.304Z,210
2016-11-22T13:20:56.296Z,220
2016-11-22T13:21:55.977Z,215
2016-11-22T13:22:55.967Z,215
2016-11-22T13:23:55.958Z,215
2016-11-22T13:24:55.954Z,200
2016-11-22T13:25:55.941Z,185
2016-11-22T13:26:55.931Z,180
2016-11-22T13:27:56.244Z,175
2016-11-22T13:28:55.914Z,170
2016-11-22T13:29:55.916Z,160
2016-11-22T13:30:55.900Z,160
2016-11-22T13:31:56.530Z,150
2016-11-22T13:32:56.192Z,140
2016-11-22T13:33:55.870Z,130
2016-11-22T13:34:55.864Z,125
2016-11-22T13:35:55.856Z,115
2016-11-22T13:36:55.842Z,105
2016-11-22T13:37:56.542Z,100
2016-11-22T13:38:55.830Z,90
2016-11-22T13:39:55.816Z,90
2016-11-22T13:40:56.118Z,85
2016-11-22T13:41:55.841Z,80
2016-11-22T13:42:55.791Z,80
2016-11-22T13:43:56.493Z,75
2016-11-22T13:44:55.771Z,75
2016-11-22T13:45:55.760Z,75
2016-11-22T13:46:55.753Z,75
2016-11-22T13:47:56.084Z,70
2016-11-22T13:48:55.725Z,70
2016-11-22T13:49:55.718Z,65
2016-11-22T13:50:55.715Z,65
2016-11-22T13:51:56.752Z,60
2016-11-22T13:52:55.681Z,55
2016-11-22T13:53:55.995Z,55
2016-11-22T13:54:55.671Z,55
2016-11-22T13:55:55.684Z,50
2016-11-22T13:56:55.978Z,50
2016-11-22T13:57:55.682Z,50
2016-11-22T13:58:55.656Z,50
2016-11-22T13:59:55.626Z,50
2016-11-22T14:00:55.606Z,50
2016-11-22T14:01:55.916Z,50
2016-11-22T14:02:55.586Z,50
2016-11-22T14:03:55.890Z,50
2016-11-22T14:04:55.872Z,50
2016-11-22T14:05:55.549Z,50
2016-11-22T14:06:55.535Z,50
2016-11-22T14:07:55.851Z,50
2016-11-22T14:08:56.140Z,45
2016-11-22T14:09:55.812Z,50
2016-11-22T14:10:55.488Z,50
2016-11-22T14:11:55.479Z,55
2016-11-22T14:12:55.783Z,60
2016-11-22T14:13:55.779Z,55
2016-11-22T14:14:55.450Z,55
2016-11-22T14:15:55.434Z,50
2016-11-22T14:16:55.424Z,50
2016-11-22T14:17:56.038Z,50
2016-11-22T14:18:55.396Z,50
2016-11-22T14:19:55.383Z,45
2016-11-22T14:20:55.377Z,40